Broadmoor, Illinois
Current Conditions -  °F | °C
As of 12:15 AM on Monday 26 Jan 2015 (Local Time) from KC75 Reporting Station
Clear Clear  
Wind Chill: 10°   Ceiling: Unl
Heat Index: 20°   Visibility: 10mi
Dew Point: 14°   Wind: 8mph
Humidity: 78%   Direction: 320°NW
Pressure: 30.02"   Gusts: NA
Location:  41.1472°N, 89.6399°W
Report Text: KC75 260615Z AUTO 32007KT 10SM CLR M07/M10 A3002 RMK AO2 T10681100
Loading
Personal Weather Stations






























Interactive Weather Map New forecast layout! Learn more

10-Day Weather Forecast

Advertisements
Track Severe Weather on mobile